createdAt,value
2023-02-15T00:04:19.911Z,7.10
2023-02-15T00:09:23.841Z,7.00
2023-02-15T00:14:27.471Z,7.00
2023-02-15T00:19:32.505Z,6.90
2023-02-15T00:24:36.304Z,6.90
2023-02-15T00:29:40.099Z,6.80
2023-02-15T00:34:45.188Z,6.80
2023-02-15T00:39:48.940Z,6.80
2023-02-15T00:44:52.621Z,6.80
2023-02-15T00:49:59.288Z,6.70
2023-02-15T00:55:02.981Z,6.70
2023-02-15T01:00:08.025Z,6.60
2023-02-15T01:05:13.626Z,6.60
2023-02-15T01:10:18.133Z,6.60
2023-02-15T01:15:22.365Z,6.60
2023-02-15T01:20:29.579Z,6.60
2023-02-15T01:25:35.876Z,6.50
2023-02-15T01:30:39.633Z,6.50
2023-02-15T01:35:44.804Z,6.50
2023-02-15T01:40:48.508Z,6.50
2023-02-15T01:45:52.988Z,6.40
2023-02-15T01:51:00.912Z,6.40
2023-02-15T01:56:10.906Z,6.40
2023-02-15T02:01:14.584Z,6.30
2023-02-15T02:06:20.345Z,6.30
2023-02-15T02:11:24.487Z,6.20
2023-02-15T02:16:35.205Z,6.30
2023-02-15T02:22:10.238Z,6.20
2023-02-15T02:27:23.335Z,6.20
2023-02-15T02:32:56.859Z,6.10
2023-02-15T02:38:10.800Z,6.10
2023-02-15T02:43:22.691Z,6.10
2023-02-15T02:48:30.331Z,6.00
2023-02-15T02:53:36.402Z,6.00
2023-02-15T02:58:44.871Z,6.00
2023-02-15T03:03:52.752Z,5.90
2023-02-15T03:09:05.360Z,5.90
2023-02-15T03:14:09.367Z,5.90
2023-02-15T03:19:17.207Z,5.80
2023-02-15T03:24:29.889Z,5.80
2023-02-15T03:29:35.676Z,5.80
2023-02-15T03:34:39.792Z,5.70
2023-02-15T03:39:50.938Z,5.70
2023-02-15T03:45:00.618Z,5.70
2023-02-15T03:50:27.706Z,5.70
2023-02-15T03:55:33.116Z,5.60
2023-02-15T04:00:58.146Z,5.60
2023-02-15T04:06:03.527Z,5.60
2023-02-15T04:11:08.778Z,5.50
2023-02-15T04:16:12.459Z,5.50
2023-02-15T04:21:34.258Z,5.40
2023-02-15T04:26:39.284Z,5.40
2023-02-15T04:31:43.992Z,5.40
2023-02-15T04:36:47.773Z,5.30
2023-02-15T04:41:52.822Z,5.30
2023-02-15T04:46:56.891Z,5.30
2023-02-15T04:52:00.595Z,5.20
2023-02-15T04:57:05.711Z,5.10
2023-02-15T05:02:09.878Z,5.10
2023-02-15T05:07:13.593Z,5.00
2023-02-15T05:12:18.612Z,5.00
2023-02-15T05:17:22.247Z,5.00
2023-02-15T05:22:25.909Z,4.90
2023-02-15T05:27:48.630Z,4.90
2023-02-15T05:32:52.320Z,4.90
2023-02-15T05:37:55.993Z,4.90
2023-02-15T05:43:01.049Z,4.80
2023-02-15T05:48:04.966Z,4.80
2023-02-15T05:53:08.740Z,4.80
2023-02-15T05:58:13.758Z,4.70
2023-02-15T06:03:17.457Z,4.70
2023-02-15T06:08:21.499Z,4.60
2023-02-15T06:13:26.619Z,4.60
2023-02-15T06:18:30.378Z,4.50
2023-02-15T06:23:34.101Z,4.50
2023-02-15T06:28:39.383Z,4.40
2023-02-15T06:33:43.106Z,4.40
2023-02-15T06:38:46.864Z,4.40
2023-02-15T06:43:52.261Z,4.30
2023-02-15T06:48:56.032Z,4.30
2023-02-15T06:53:59.712Z,4.30
2023-02-15T06:59:04.715Z,4.30
2023-02-15T07:04:08.488Z,4.30
2023-02-15T07:09:12.324Z,4.30
2023-02-15T07:14:17.482Z,4.20
2023-02-15T07:19:21.204Z,4.20
2023-02-15T07:24:25.037Z,4.20
2023-02-15T07:29:30.348Z,4.20
2023-02-15T07:34:34.043Z,4.10
2023-02-15T07:39:37.765Z,4.20
2023-02-15T07:44:42.912Z,4.10
2023-02-15T07:49:46.939Z,4.20
2023-02-15T07:54:50.707Z,4.30
2023-02-15T07:59:55.938Z,4.30
2023-02-15T08:04:59.741Z,4.40
2023-02-15T08:10:03.577Z,4.50
2023-02-15T08:15:09.616Z,4.50
2023-02-15T08:20:14.491Z,4.60
2023-02-15T08:25:18.412Z,4.70
2023-02-15T08:30:23.757Z,4.80
2023-02-15T08:35:27.526Z,4.90
2023-02-15T08:40:31.281Z,5.00
2023-02-15T08:45:36.420Z,5.10
2023-02-15T08:50:40.534Z,5.20
2023-02-15T08:55:44.303Z,5.30
2023-02-15T09:00:49.426Z,5.50
2023-02-15T09:05:58.328Z,5.70
2023-02-15T09:11:12.291Z,6.00
2023-02-15T09:16:17.925Z,7.20
2023-02-15T09:21:23.235Z,8.60
2023-02-15T09:26:27.493Z,9.90
2023-02-15T09:31:34.419Z,11.20
2023-02-15T09:36:39.711Z,12.50
2023-02-15T09:42:08.904Z,12.80
2023-02-15T09:47:36.020Z,12.60
2023-02-15T09:53:03.122Z,13.50
2023-02-15T09:58:16.623Z,15.00
2023-02-15T10:03:42.182Z,16.00
2023-02-15T10:08:59.265Z,16.80
2023-02-15T10:14:16.606Z,17.40
2023-02-15T10:19:30.281Z,17.80
2023-02-15T10:24:49.288Z,18.10
2023-02-15T10:30:06.079Z,18.40
2023-02-15T10:35:16.917Z,18.70
2023-02-15T10:40:31.082Z,18.80
2023-02-15T10:45:46.846Z,18.70
2023-02-15T10:50:54.802Z,18.30
2023-02-15T10:56:05.267Z,17.50
2023-02-15T11:01:22.404Z,16.90
2023-02-15T11:06:29.475Z,16.70
2023-02-15T11:11:34.674Z,16.10
2023-02-15T11:16:41.838Z,15.30
2023-02-15T11:21:51.085Z,14.70
2023-02-15T11:26:59.698Z,14.40
2023-02-15T11:32:13.715Z,14.10
2023-02-15T11:37:26.450Z,13.80
2023-02-15T11:42:33.611Z,13.80
2023-02-15T11:47:37.342Z,13.80
2023-02-15T11:52:42.419Z,13.70
2023-02-15T11:57:52.564Z,13.70
2023-02-15T12:02:59.470Z,13.70
2023-02-15T12:08:11.592Z,13.80
2023-02-15T12:13:17.328Z,14.00
2023-02-15T12:18:29.449Z,14.30
2023-02-15T12:23:35.762Z,14.50
2023-02-15T12:28:43.251Z,14.80
2023-02-15T12:33:48.215Z,14.90
2023-02-15T12:39:23.263Z,15.10
2023-02-15T12:44:30.040Z,15.50
2023-02-15T12:49:34.995Z,16.00
2023-02-15T12:54:44.922Z,16.20
2023-02-15T12:59:53.251Z,16.40
2023-02-15T13:04:58.708Z,16.50
2023-02-15T13:10:04.017Z,16.60
2023-02-15T13:15:28.226Z,16.60
2023-02-15T13:20:32.989Z,16.50
2023-02-15T13:25:48.266Z,16.40
2023-02-15T13:30:53.324Z,16.10
2023-02-15T13:36:04.912Z,15.90
2023-02-15T13:41:16.948Z,15.70
2023-02-15T13:46:36.445Z,15.60
2023-02-15T13:51:45.575Z,15.50
2023-02-15T13:57:03.521Z,15.40
2023-02-15T14:02:35.801Z,15.30
2023-02-15T14:07:56.209Z,15.30
2023-02-15T14:13:31.411Z,15.00
2023-02-15T14:18:42.173Z,14.70
2023-02-15T14:23:56.617Z,14.60
2023-02-15T14:29:08.903Z,14.30
2023-02-15T14:34:23.157Z,14.20
2023-02-15T14:39:56.328Z,14.10
2023-02-15T14:45:06.704Z,13.90
2023-02-15T14:50:45.219Z,13.80
2023-02-15T14:55:49.150Z,13.70
2023-02-15T15:00:52.960Z,13.70
2023-02-15T15:06:03.228Z,13.60
2023-02-15T15:11:43.832Z,13.60
2023-02-15T15:16:53.374Z,13.50
2023-02-15T15:22:04.328Z,13.50
2023-02-15T15:27:39.968Z,13.40
2023-02-15T15:32:50.776Z,13.30
2023-02-15T15:38:23.169Z,13.30
2023-02-15T15:43:41.669Z,13.20
2023-02-15T15:48:45.636Z,13.10
2023-02-15T15:53:54.347Z,13.00
2023-02-15T15:59:02.491Z,12.90
2023-02-15T16:04:06.399Z,12.80
2023-02-15T16:09:18.655Z,12.80
2023-02-15T16:14:31.022Z,12.70
2023-02-15T16:19:39.782Z,12.70
2023-02-15T16:25:21.433Z,12.60
2023-02-15T16:30:31.084Z,12.50
2023-02-15T16:35:35.537Z,12.40
2023-02-15T16:40:53.456Z,12.30
2023-02-15T16:46:05.746Z,12.30
2023-02-15T16:51:10.706Z,12.20
2023-02-15T16:56:16.973Z,12.10
2023-02-15T17:01:24.937Z,12.00
2023-02-15T17:06:30.471Z,11.90
2023-02-15T17:11:41.811Z,11.80
2023-02-15T17:16:50.358Z,11.70
2023-02-15T17:21:56.608Z,11.60
2023-02-15T17:27:05.991Z,11.50
2023-02-15T17:32:18.868Z,11.40
2023-02-15T17:37:28.458Z,11.30
2023-02-15T17:42:33.525Z,11.30
2023-02-15T17:47:37.372Z,11.20
2023-02-15T17:52:41.096Z,11.10
2023-02-15T17:57:46.173Z,11.10
2023-02-15T18:03:07.211Z,11.00
2023-02-15T18:08:31.559Z,11.00
2023-02-15T18:13:36.664Z,10.90
2023-02-15T18:18:40.407Z,10.80
2023-02-15T18:23:44.134Z,10.80
2023-02-15T18:28:49.302Z,10.70
2023-02-15T18:33:55.756Z,10.70
2023-02-15T18:39:04.759Z,10.60
2023-02-15T18:44:13.727Z,10.60
2023-02-15T18:49:17.495Z,10.50
2023-02-15T18:54:23.930Z,10.50
2023-02-15T18:59:30.613Z,10.40
2023-02-15T19:04:34.381Z,10.40
2023-02-15T19:09:39.527Z,10.40
2023-02-15T19:14:45.057Z,10.40
2023-02-15T19:19:49.121Z,10.30
2023-02-15T19:24:53.874Z,10.30
2023-02-15T19:30:00.586Z,10.20
2023-02-15T19:35:05.382Z,10.20
2023-02-15T19:40:21.316Z,10.10
2023-02-15T19:45:29.674Z,10.10
2023-02-15T19:50:35.492Z,10.00
2023-02-15T19:55:39.307Z,9.90
2023-02-15T20:00:44.416Z,9.90
2023-02-15T20:05:48.190Z,9.80
2023-02-15T20:10:51.978Z,9.80
2023-02-15T20:15:57.156Z,9.80
2023-02-15T20:21:02.374Z,9.70
2023-02-15T20:26:14.479Z,9.70
2023-02-15T20:31:20.680Z,9.70
2023-02-15T20:36:24.798Z,9.60
2023-02-15T20:41:37.628Z,9.60
2023-02-15T20:46:42.829Z,9.50
2023-02-15T20:51:47.571Z,9.50
2023-02-15T20:56:51.598Z,9.40
2023-02-15T21:02:00.420Z,9.40
2023-02-15T21:07:04.498Z,9.40
2023-02-15T21:12:14.352Z,9.30
2023-02-15T21:17:21.073Z,9.30
2023-02-15T21:22:24.873Z,9.20
2023-02-15T21:27:29.719Z,9.10
2023-02-15T21:32:35.736Z,9.10
2023-02-15T21:37:40.254Z,9.10
2023-02-15T21:43:01.256Z,9.00
2023-02-15T21:48:06.572Z,8.90
2023-02-15T21:53:13.793Z,8.90
2023-02-15T21:58:21.214Z,8.80
2023-02-15T22:03:27.701Z,8.70
2023-02-15T22:08:36.856Z,8.70
2023-02-15T22:13:41.245Z,8.70
2023-02-15T22:18:47.088Z,8.60
2023-02-15T22:23:50.899Z,8.60
2023-02-15T22:28:54.808Z,8.50
2023-02-15T22:33:59.940Z,8.50
2023-02-15T22:39:03.626Z,8.50
2023-02-15T22:44:07.414Z,8.50
2023-02-15T22:49:14.608Z,8.40
2023-02-15T22:54:19.768Z,8.40
2023-02-15T22:59:28.392Z,8.30
2023-02-15T23:04:33.604Z,8.30
2023-02-15T23:09:37.287Z,8.20
2023-02-15T23:14:41.095Z,8.20
2023-02-15T23:19:46.674Z,8.20
2023-02-15T23:24:53.886Z,8.10
2023-02-15T23:29:57.686Z,8.10
2023-02-15T23:35:02.867Z,8.10
2023-02-15T23:40:27.975Z,8.10
2023-02-15T23:45:38.158Z,8.10
2023-02-15T23:50:43.750Z,8.10
2023-02-15T23:55:47.654Z,8.00
